KBKE/BKE METAR and TAF weather

Enter ICAO airport designator
Station Type Date Time Source
KBKE METAR 2021/07/27 21:53 UTC NOAA

KBKE 272153Z AUTO 33020G30KT 10SM CLR 31/06 A3006 RMK AO2 PK WND 34031/2132 SLP145 T03110061


Station Type Date Time Source
KBKE Decoded METAR 2021/07/27 21:53 UTC NOAA

BAKER MUNICIPAL AIRPORT, OR, United States (KBKE) 44-50N 117-49W 1024M
Jul 27, 2021 - 05:53 PM EDT / 2021.07.27 2153 UTC
Wind: from the NNW (330 degrees) at 23 MPH (20 KT) gusting to 35 MPH (30 KT):0
Visibility: 10 mile(s):0
Sky conditions: clear
Temperature: 88.0 F (31.1 C)
Dew Point: 43.0 F (6.1 C)
Relative Humidity: 20%
Pressure (altimeter): 30.06 in. Hg (1017 hPa)
ob: KBKE 272153Z AUTO 33020G30KT 10SM CLR 31/06 A3006 RMK AO2 PK WND 34031/2132 SLP145 T03110061
cycle: 22

Station Type Date Time Source
KBKE TAF 2021/07/27 18:33 UTC NOAA

TAF KBKE 271731Z 2718/2818 33011KT 6SM FU VCSH BKN100
FM272000 32020G30KT 6SM FU VCSH BKN100
FM280400 32006KT 6SM FU BKN100

Example: see airport list